sensor_id;sensor_type;location;lat;lon;timestamp;P1;durP1;ratioP1;P2;durP2;ratioP2
37869;SDS011;62531;53.326;-1.368;2022-09-09T00:06:55;4.13;;;1.07;;
37869;SDS011;62531;53.326;-1.368;2022-09-09T00:10:56;5.50;;;1.30;;
37869;SDS011;62531;53.326;-1.368;2022-09-09T00:15:07;4.60;;;1.27;;
37869;SDS011;62531;53.326;-1.368;2022-09-09T00:19:22;4.73;;;1.67;;
37869;SDS011;62531;53.326;-1.368;2022-09-09T00:23:38;4.57;;;1.40;;
37869;SDS011;62531;53.326;-1.368;2022-09-09T00:27:47;4.63;;;1.40;;
37869;SDS011;62531;53.326;-1.368;2022-09-09T00:31:49;4.63;;;1.42;;
37869;SDS011;62531;53.326;-1.368;2022-09-09T00:35:55;4.77;;;1.30;;
37869;SDS011;62531;53.326;-1.368;2022-09-09T00:39:59;5.07;;;1.60;;
37869;SDS011;62531;53.326;-1.368;2022-09-09T00:44:13;5.05;;;1.50;;
37869;SDS011;62531;53.326;-1.368;2022-09-09T00:48:22;5.27;;;1.73;;
37869;SDS011;62531;53.326;-1.368;2022-09-09T01:01:31;5.67;;;1.47;;
37869;SDS011;62531;53.326;-1.368;2022-09-09T01:13:45;4.63;;;1.60;;
37869;SDS011;62531;53.326;-1.368;2022-09-09T01:17:52;4.03;;;1.60;;
37869;SDS011;62531;53.326;-1.368;2022-09-09T01:22:01;4.75;;;1.42;;
37869;SDS011;62531;53.326;-1.368;2022-09-09T01:30:19;5.07;;;1.87;;
37869;SDS011;62531;53.326;-1.368;2022-09-09T01:34:23;5.60;;;1.92;;
37869;SDS011;62531;53.326;-1.368;2022-09-09T01:38:26;5.53;;;1.73;;
37869;SDS011;62531;53.326;-1.368;2022-09-09T01:42:29;5.37;;;1.67;;
37869;SDS011;62531;53.326;-1.368;2022-09-09T01:46:31;5.10;;;1.67;;
37869;SDS011;62531;53.326;-1.368;2022-09-09T01:50:32;5.00;;;1.70;;
37869;SDS011;62531;53.326;-1.368;2022-09-09T01:54:33;4.93;;;1.55;;
37869;SDS011;62531;53.326;-1.368;2022-09-09T02:03:20;5.53;;;2.05;;
37869;SDS011;62531;53.326;-1.368;2022-09-09T02:11:36;5.20;;;2.00;;
37869;SDS011;62531;53.326;-1.368;2022-09-09T02:15:47;6.13;;;2.22;;
37869;SDS011;62531;53.326;-1.368;2022-09-09T02:20:13;5.20;;;1.90;;
37869;SDS011;62531;53.326;-1.368;2022-09-09T02:24:15;4.97;;;1.97;;
37869;SDS011;62531;53.326;-1.368;2022-09-09T02:28:16;5.30;;;2.05;;
37869;SDS011;62531;53.326;-1.368;2022-09-09T02:32:22;5.25;;;2.17;;
37869;SDS011;62531;53.326;-1.368;2022-09-09T02:36:25;5.80;;;2.47;;
37869;SDS011;62531;53.326;-1.368;2022-09-09T02:40:31;5.77;;;2.20;;
37869;SDS011;62531;53.326;-1.368;2022-09-09T02:44:32;5.65;;;2.53;;
37869;SDS011;62531;53.326;-1.368;2022-09-09T02:48:47;6.60;;;2.95;;
37869;SDS011;62531;53.326;-1.368;2022-09-09T02:57:02;6.15;;;2.50;;
37869;SDS011;62531;53.326;-1.368;2022-09-09T03:01:15;6.05;;;2.95;;
37869;SDS011;62531;53.326;-1.368;2022-09-09T03:05:16;6.60;;;2.83;;
37869;SDS011;62531;53.326;-1.368;2022-09-09T03:09:18;6.20;;;2.50;;
37869;SDS011;62531;53.326;-1.368;2022-09-09T03:13:19;6.10;;;2.60;;
37869;SDS011;62531;53.326;-1.368;2022-09-09T03:17:21;5.90;;;2.60;;
37869;SDS011;62531;53.326;-1.368;2022-09-09T03:21:22;6.30;;;2.67;;
37869;SDS011;62531;53.326;-1.368;2022-09-09T03:25:25;6.20;;;2.80;;
37869;SDS011;62531;53.326;-1.368;2022-09-09T03:29:28;6.93;;;2.95;;
37869;SDS011;62531;53.326;-1.368;2022-09-09T03:33:29;6.60;;;3.10;;
37869;SDS011;62531;53.326;-1.368;2022-09-09T03:37:31;7.00;;;3.08;;
37869;SDS011;62531;53.326;-1.368;2022-09-09T03:41:33;6.75;;;3.30;;
37869;SDS011;62531;53.326;-1.368;2022-09-09T03:45:34;6.50;;;2.90;;
37869;SDS011;62531;53.326;-1.368;2022-09-09T03:49:35;7.03;;;3.20;;
37869;SDS011;62531;53.326;-1.368;2022-09-09T03:53:36;7.72;;;3.58;;
37869;SDS011;62531;53.326;-1.368;2022-09-09T03:57:38;7.07;;;3.45;;
37869;SDS011;62531;53.326;-1.368;2022-09-09T04:01:39;6.83;;;3.30;;
37869;SDS011;62531;53.326;-1.368;2022-09-09T04:05:41;6.72;;;3.40;;
37869;SDS011;62531;53.326;-1.368;2022-09-09T04:09:42;6.70;;;3.60;;
37869;SDS011;62531;53.326;-1.368;2022-09-09T04:13:44;6.13;;;3.03;;
37869;SDS011;62531;53.326;-1.368;2022-09-09T04:17:45;7.32;;;3.72;;
37869;SDS011;62531;53.326;-1.368;2022-09-09T04:21:47;7.65;;;3.63;;
37869;SDS011;62531;53.326;-1.368;2022-09-09T04:25:52;6.60;;;3.33;;
37869;SDS011;62531;53.326;-1.368;2022-09-09T04:29:54;7.20;;;3.30;;
37869;SDS011;62531;53.326;-1.368;2022-09-09T04:33:57;7.78;;;4.45;;
37869;SDS011;62531;53.326;-1.368;2022-09-09T04:37:58;6.95;;;3.70;;
37869;SDS011;62531;53.326;-1.368;2022-09-09T04:41:59;7.57;;;3.37;;
37869;SDS011;62531;53.326;-1.368;2022-09-09T04:46:01;7.93;;;4.05;;
37869;SDS011;62531;53.326;-1.368;2022-09-09T04:50:02;7.50;;;3.83;;
37869;SDS011;62531;53.326;-1.368;2022-09-09T04:54:03;7.67;;;3.73;;
37869;SDS011;62531;53.326;-1.368;2022-09-09T04:58:07;7.13;;;3.58;;
37869;SDS011;62531;53.326;-1.368;2022-09-09T05:02:08;7.63;;;3.88;;
37869;SDS011;62531;53.326;-1.368;2022-09-09T05:06:10;6.93;;;3.50;;
37869;SDS011;62531;53.326;-1.368;2022-09-09T05:10:13;7.43;;;3.80;;
37869;SDS011;62531;53.326;-1.368;2022-09-09T05:14:17;7.63;;;4.00;;
37869;SDS011;62531;53.326;-1.368;2022-09-09T05:18:18;8.35;;;3.95;;
37869;SDS011;62531;53.326;-1.368;2022-09-09T05:22:19;7.37;;;3.67;;
37869;SDS011;62531;53.326;-1.368;2022-09-09T05:26:22;7.15;;;3.60;;
37869;SDS011;62531;53.326;-1.368;2022-09-09T05:30:25;7.70;;;3.67;;
37869;SDS011;62531;53.326;-1.368;2022-09-09T05:34:26;7.13;;;3.67;;
37869;SDS011;62531;53.326;-1.368;2022-09-09T05:38:28;7.57;;;3.47;;
37869;SDS011;62531;53.326;-1.368;2022-09-09T05:42:30;7.00;;;3.63;;
37869;SDS011;62531;53.326;-1.368;2022-09-09T05:46:32;7.17;;;3.90;;
37869;SDS011;62531;53.326;-1.368;2022-09-09T05:50:34;6.85;;;3.70;;
37869;SDS011;62531;53.326;-1.368;2022-09-09T05:54:35;7.03;;;3.97;;
37869;SDS011;62531;53.326;-1.368;2022-09-09T05:58:38;7.75;;;3.78;;
37869;SDS011;62531;53.326;-1.368;2022-09-09T06:02:40;7.20;;;3.47;;
37869;SDS011;62531;53.326;-1.368;2022-09-09T06:06:43;7.03;;;3.50;;
37869;SDS011;62531;53.326;-1.368;2022-09-09T06:10:45;6.45;;;3.63;;
37869;SDS011;62531;53.326;-1.368;2022-09-09T06:14:46;6.80;;;3.30;;
37869;SDS011;62531;53.326;-1.368;2022-09-09T06:18:47;6.72;;;3.63;;
37869;SDS011;62531;53.326;-1.368;2022-09-09T06:22:49;7.18;;;3.28;;
37869;SDS011;62531;53.326;-1.368;2022-09-09T06:26:50;7.17;;;3.57;;
37869;SDS011;62531;53.326;-1.368;2022-09-09T06:30:57;7.00;;;3.55;;
37869;SDS011;62531;53.326;-1.368;2022-09-09T06:34:59;6.60;;;3.30;;
37869;SDS011;62531;53.326;-1.368;2022-09-09T06:39:01;7.15;;;3.80;;
37869;SDS011;62531;53.326;-1.368;2022-09-09T06:43:22;6.80;;;3.40;;
37869;SDS011;62531;53.326;-1.368;2022-09-09T06:47:24;8.85;;;3.58;;
37869;SDS011;62531;53.326;-1.368;2022-09-09T06:51:27;14.45;;;7.50;;
37869;SDS011;62531;53.326;-1.368;2022-09-09T06:55:31;18.13;;;8.33;;
37869;SDS011;62531;53.326;-1.368;2022-09-09T06:59:32;17.90;;;10.82;;
37869;SDS011;62531;53.326;-1.368;2022-09-09T07:03:33;16.80;;;9.50;;
37869;SDS011;62531;53.326;-1.368;2022-09-09T07:07:35;17.13;;;8.47;;
37869;SDS011;62531;53.326;-1.368;2022-09-09T07:11:38;16.77;;;8.82;;
37869;SDS011;62531;53.326;-1.368;2022-09-09T07:15:43;19.25;;;10.50;;
37869;SDS011;62531;53.326;-1.368;2022-09-09T07:19:44;17.63;;;9.88;;
37869;SDS011;62531;53.326;-1.368;2022-09-09T07:23:45;18.43;;;9.93;;
37869;SDS011;62531;53.326;-1.368;2022-09-09T07:27:46;18.38;;;9.75;;
37869;SDS011;62531;53.326;-1.368;2022-09-09T07:31:47;20.15;;;10.13;;
37869;SDS011;62531;53.326;-1.368;2022-09-09T08:43:02;11.48;;;3.97;;
37869;SDS011;62531;53.326;-1.368;2022-09-09T08:51:22;9.00;;;3.65;;
37869;SDS011;62531;53.326;-1.368;2022-09-09T08:59:52;9.57;;;4.00;;
37869;SDS011;62531;53.326;-1.368;2022-09-09T09:03:59;12.43;;;4.20;;
37869;SDS011;62531;53.326;-1.368;2022-09-09T09:08:05;9.52;;;4.20;;
37869;SDS011;62531;53.326;-1.368;2022-09-09T09:12:18;9.13;;;4.35;;
37869;SDS011;62531;53.326;-1.368;2022-09-09T09:20:42;10.38;;;3.88;;
37869;SDS011;62531;53.326;-1.368;2022-09-09T09:25:27;7.00;;;2.80;;
37869;SDS011;62531;53.326;-1.368;2022-09-09T09:29:40;9.93;;;2.30;;
37869;SDS011;62531;53.326;-1.368;2022-09-09T09:37:50;9.98;;;2.65;;
37869;SDS011;62531;53.326;-1.368;2022-09-09T09:41:51;8.88;;;2.65;;
37869;SDS011;62531;53.326;-1.368;2022-09-09T09:45:53;9.90;;;2.00;;
37869;SDS011;62531;53.326;-1.368;2022-09-09T09:49:58;5.90;;;1.70;;
37869;SDS011;62531;53.326;-1.368;2022-09-09T09:54:14;7.20;;;1.80;;
37869;SDS011;62531;53.326;-1.368;2022-09-09T10:02:47;8.38;;;2.20;;
37869;SDS011;62531;53.326;-1.368;2022-09-09T10:06:50;8.20;;;2.33;;
37869;SDS011;62531;53.326;-1.368;2022-09-09T10:15:25;8.90;;;2.40;;
37869;SDS011;62531;53.326;-1.368;2022-09-09T10:19:35;8.07;;;2.22;;
37869;SDS011;62531;53.326;-1.368;2022-09-09T10:37:01;9.00;;;2.45;;
37869;SDS011;62531;53.326;-1.368;2022-09-09T10:58:28;8.45;;;1.90;;
37869;SDS011;62531;53.326;-1.368;2022-09-09T11:02:38;6.65;;;1.88;;
37869;SDS011;62531;53.326;-1.368;2022-09-09T11:06:44;7.68;;;2.33;;
37869;SDS011;62531;53.326;-1.368;2022-09-09T11:10:55;6.70;;;1.90;;
37869;SDS011;62531;53.326;-1.368;2022-09-09T11:16:16;7.30;;;1.83;;
37869;SDS011;62531;53.326;-1.368;2022-09-09T11:19:43;5.95;;;1.80;;
37869;SDS011;62531;53.326;-1.368;2022-09-09T11:23:49;7.03;;;1.80;;
37869;SDS011;62531;53.326;-1.368;2022-09-09T11:32:24;6.40;;;1.50;;
37869;SDS011;62531;53.326;-1.368;2022-09-09T11:41:18;7.30;;;1.80;;
37869;SDS011;62531;53.326;-1.368;2022-09-09T11:45:25;6.07;;;1.60;;
37869;SDS011;62531;53.326;-1.368;2022-09-09T11:49:42;5.50;;;1.77;;
37869;SDS011;62531;53.326;-1.368;2022-09-09T12:02:14;5.95;;;1.73;;
37869;SDS011;62531;53.326;-1.368;2022-09-09T12:06:29;5.47;;;1.27;;
37869;SDS011;62531;53.326;-1.368;2022-09-09T12:10:33;5.47;;;1.70;;
37869;SDS011;62531;53.326;-1.368;2022-09-09T12:14:37;4.45;;;1.63;;
37869;SDS011;62531;53.326;-1.368;2022-09-09T12:18:44;5.43;;;1.40;;
37869;SDS011;62531;53.326;-1.368;2022-09-09T12:22:50;5.95;;;1.40;;
37869;SDS011;62531;53.326;-1.368;2022-09-09T12:27:14;5.47;;;1.10;;
37869;SDS011;62531;53.326;-1.368;2022-09-09T12:35:41;6.63;;;1.17;;
37869;SDS011;62531;53.326;-1.368;2022-09-09T12:39:47;5.43;;;1.40;;
37869;SDS011;62531;53.326;-1.368;2022-09-09T12:44:05;5.82;;;1.67;;
37869;SDS011;62531;53.326;-1.368;2022-09-09T12:48:08;5.17;;;1.20;;
37869;SDS011;62531;53.326;-1.368;2022-09-09T12:52:27;5.53;;;1.20;;
37869;SDS011;62531;53.326;-1.368;2022-09-09T12:56:35;6.55;;;1.33;;
37869;SDS011;62531;53.326;-1.368;2022-09-09T13:00:36;6.77;;;1.27;;
37869;SDS011;62531;53.326;-1.368;2022-09-09T13:04:37;6.65;;;1.17;;
37869;SDS011;62531;53.326;-1.368;2022-09-09T13:08:39;6.07;;;1.02;;
37869;SDS011;62531;53.326;-1.368;2022-09-09T13:12:41;5.78;;;1.23;;
37869;SDS011;62531;53.326;-1.368;2022-09-09T13:16:53;5.83;;;1.13;;
37869;SDS011;62531;53.326;-1.368;2022-09-09T13:21:03;5.18;;;1.20;;
37869;SDS011;62531;53.326;-1.368;2022-09-09T13:29:18;6.20;;;1.27;;
37869;SDS011;62531;53.326;-1.368;2022-09-09T13:33:22;6.28;;;1.25;;
37869;SDS011;62531;53.326;-1.368;2022-09-09T13:37:31;5.13;;;1.15;;
37869;SDS011;62531;53.326;-1.368;2022-09-09T13:41:42;6.23;;;1.43;;
37869;SDS011;62531;53.326;-1.368;2022-09-09T13:45:52;5.28;;;1.02;;
37869;SDS011;62531;53.326;-1.368;2022-09-09T13:49:57;6.18;;;1.50;;
37869;SDS011;62531;53.326;-1.368;2022-09-09T13:53:58;6.20;;;1.27;;
37869;SDS011;62531;53.326;-1.368;2022-09-09T13:58:02;6.80;;;1.20;;
37869;SDS011;62531;53.326;-1.368;2022-09-09T14:02:06;5.55;;;1.08;;
37869;SDS011;62531;53.326;-1.368;2022-09-09T14:06:07;5.85;;;1.38;;
37869;SDS011;62531;53.326;-1.368;2022-09-09T14:10:10;4.50;;;1.10;;
37869;SDS011;62531;53.326;-1.368;2022-09-09T14:14:12;6.68;;;1.02;;
37869;SDS011;62531;53.326;-1.368;2022-09-09T14:18:14;4.35;;;0.70;;
37869;SDS011;62531;53.326;-1.368;2022-09-09T14:22:15;4.63;;;1.13;;
37869;SDS011;62531;53.326;-1.368;2022-09-09T14:26:16;4.60;;;1.02;;
37869;SDS011;62531;53.326;-1.368;2022-09-09T14:30:19;3.97;;;0.90;;
37869;SDS011;62531;53.326;-1.368;2022-09-09T14:34:20;5.28;;;0.98;;
37869;SDS011;62531;53.326;-1.368;2022-09-09T14:38:22;7.27;;;0.80;;
37869;SDS011;62531;53.326;-1.368;2022-09-09T14:42:23;6.15;;;0.88;;
37869;SDS011;62531;53.326;-1.368;2022-09-09T14:46:25;4.47;;;1.00;;
37869;SDS011;62531;53.326;-1.368;2022-09-09T14:50:27;3.70;;;0.77;;
37869;SDS011;62531;53.326;-1.368;2022-09-09T14:54:31;6.05;;;1.17;;
37869;SDS011;62531;53.326;-1.368;2022-09-09T14:58:33;6.13;;;0.90;;
37869;SDS011;62531;53.326;-1.368;2022-09-09T15:02:35;7.83;;;1.10;;
37869;SDS011;62531;53.326;-1.368;2022-09-09T15:06:36;4.63;;;1.08;;
37869;SDS011;62531;53.326;-1.368;2022-09-09T15:10:39;4.22;;;0.90;;
37869;SDS011;62531;53.326;-1.368;2022-09-09T15:14:40;4.88;;;0.80;;
37869;SDS011;62531;53.326;-1.368;2022-09-09T15:18:42;5.20;;;1.17;;
37869;SDS011;62531;53.326;-1.368;2022-09-09T15:22:45;3.65;;;0.70;;
37869;SDS011;62531;53.326;-1.368;2022-09-09T15:26:46;5.22;;;0.73;;
37869;SDS011;62531;53.326;-1.368;2022-09-09T15:30:52;4.60;;;0.70;;
37869;SDS011;62531;53.326;-1.368;2022-09-09T15:34:54;4.22;;;0.80;;
37869;SDS011;62531;53.326;-1.368;2022-09-09T15:38:56;2.92;;;0.63;;
37869;SDS011;62531;53.326;-1.368;2022-09-09T15:42:57;3.60;;;0.70;;
37869;SDS011;62531;53.326;-1.368;2022-09-09T15:46:58;5.30;;;0.85;;
37869;SDS011;62531;53.326;-1.368;2022-09-09T15:51:03;4.20;;;0.90;;
37869;SDS011;62531;53.326;-1.368;2022-09-09T15:55:05;3.95;;;0.85;;
37869;SDS011;62531;53.326;-1.368;2022-09-09T15:59:07;4.33;;;0.90;;
37869;SDS011;62531;53.326;-1.368;2022-09-09T16:03:08;5.25;;;0.80;;
37869;SDS011;62531;53.326;-1.368;2022-09-09T16:07:09;6.68;;;1.17;;
37869;SDS011;62531;53.326;-1.368;2022-09-09T16:11:14;5.33;;;0.70;;
37869;SDS011;62531;53.326;-1.368;2022-09-09T16:15:17;3.33;;;0.60;;
37869;SDS011;62531;53.326;-1.368;2022-09-09T16:19:20;4.57;;;0.70;;
37869;SDS011;62531;53.326;-1.368;2022-09-09T16:23:21;3.40;;;0.83;;
37869;SDS011;62531;53.326;-1.368;2022-09-09T16:28:00;5.20;;;0.68;;
37869;SDS011;62531;53.326;-1.368;2022-09-09T16:32:02;2.97;;;0.70;;
37869;SDS011;62531;53.326;-1.368;2022-09-09T16:36:11;4.53;;;0.90;;
37869;SDS011;62531;53.326;-1.368;2022-09-09T16:40:14;4.07;;;0.50;;
37869;SDS011;62531;53.326;-1.368;2022-09-09T16:44:17;6.90;;;0.70;;
37869;SDS011;62531;53.326;-1.368;2022-09-09T16:48:19;4.18;;;0.63;;
37869;SDS011;62531;53.326;-1.368;2022-09-09T16:52:21;3.87;;;0.77;;
37869;SDS011;62531;53.326;-1.368;2022-09-09T16:56:23;4.18;;;0.77;;
37869;SDS011;62531;53.326;-1.368;2022-09-09T17:00:26;4.18;;;0.70;;
37869;SDS011;62531;53.326;-1.368;2022-09-09T17:04:27;3.90;;;0.57;;
37869;SDS011;62531;53.326;-1.368;2022-09-09T17:08:29;3.08;;;0.75;;
37869;SDS011;62531;53.326;-1.368;2022-09-09T17:12:31;3.40;;;0.70;;
37869;SDS011;62531;53.326;-1.368;2022-09-09T17:16:33;3.25;;;0.65;;
37869;SDS011;62531;53.326;-1.368;2022-09-09T17:20:36;4.40;;;0.80;;
37869;SDS011;62531;53.326;-1.368;2022-09-09T17:24:57;4.85;;;0.75;;
37869;SDS011;62531;53.326;-1.368;2022-09-09T17:28:59;3.17;;;0.55;;
37869;SDS011;62531;53.326;-1.368;2022-09-09T17:33:00;4.03;;;0.80;;
37869;SDS011;62531;53.326;-1.368;2022-09-09T17:37:02;4.70;;;0.80;;
37869;SDS011;62531;53.326;-1.368;2022-09-09T17:41:07;5.40;;;1.10;;
37869;SDS011;62531;53.326;-1.368;2022-09-09T17:45:20;5.90;;;0.70;;
37869;SDS011;62531;53.326;-1.368;2022-09-09T17:49:21;3.53;;;0.80;;
37869;SDS011;62531;53.326;-1.368;2022-09-09T17:53:22;5.05;;;0.70;;
37869;SDS011;62531;53.326;-1.368;2022-09-09T17:57:24;8.05;;;0.90;;
37869;SDS011;62531;53.326;-1.368;2022-09-09T18:01:26;5.53;;;0.70;;
37869;SDS011;62531;53.326;-1.368;2022-09-09T18:05:30;4.50;;;0.82;;
37869;SDS011;62531;53.326;-1.368;2022-09-09T18:09:31;6.43;;;1.00;;
37869;SDS011;62531;53.326;-1.368;2022-09-09T18:13:32;6.40;;;1.00;;
37869;SDS011;62531;53.326;-1.368;2022-09-09T18:17:34;6.15;;;1.27;;
37869;SDS011;62531;53.326;-1.368;2022-09-09T18:21:35;5.07;;;0.90;;
37869;SDS011;62531;53.326;-1.368;2022-09-09T18:25:39;5.13;;;1.00;;
37869;SDS011;62531;53.326;-1.368;2022-09-09T18:29:41;5.63;;;1.10;;
37869;SDS011;62531;53.326;-1.368;2022-09-09T18:33:43;6.05;;;0.90;;
37869;SDS011;62531;53.326;-1.368;2022-09-09T18:37:46;6.90;;;1.23;;
37869;SDS011;62531;53.326;-1.368;2022-09-09T18:41:48;6.23;;;0.87;;
37869;SDS011;62531;53.326;-1.368;2022-09-09T18:45:51;6.68;;;0.90;;
37869;SDS011;62531;53.326;-1.368;2022-09-09T18:49:52;5.75;;;0.80;;
37869;SDS011;62531;53.326;-1.368;2022-09-09T18:53:58;6.47;;;0.83;;
37869;SDS011;62531;53.326;-1.368;2022-09-09T18:58:01;5.80;;;1.00;;
37869;SDS011;62531;53.326;-1.368;2022-09-09T19:02:03;7.20;;;0.93;;
37869;SDS011;62531;53.326;-1.368;2022-09-09T19:06:08;5.17;;;0.90;;
37869;SDS011;62531;53.326;-1.368;2022-09-09T19:10:13;5.25;;;0.80;;
37869;SDS011;62531;53.326;-1.368;2022-09-09T19:14:15;5.55;;;0.98;;
37869;SDS011;62531;53.326;-1.368;2022-09-09T19:18:18;4.28;;;0.68;;
37869;SDS011;62531;53.326;-1.368;2022-09-09T19:22:19;4.93;;;1.10;;
37869;SDS011;62531;53.326;-1.368;2022-09-09T19:26:20;3.90;;;0.90;;
37869;SDS011;62531;53.326;-1.368;2022-09-09T19:30:22;5.55;;;1.10;;
37869;SDS011;62531;53.326;-1.368;2022-09-09T19:34:24;5.67;;;0.93;;
37869;SDS011;62531;53.326;-1.368;2022-09-09T19:38:26;4.57;;;0.93;;
37869;SDS011;62531;53.326;-1.368;2022-09-09T19:42:28;6.05;;;1.15;;
37869;SDS011;62531;53.326;-1.368;2022-09-09T19:46:33;4.97;;;1.17;;
37869;SDS011;62531;53.326;-1.368;2022-09-09T19:50:37;5.63;;;0.88;;
37869;SDS011;62531;53.326;-1.368;2022-09-09T19:54:38;4.88;;;1.13;;
37869;SDS011;62531;53.326;-1.368;2022-09-09T19:58:39;5.95;;;1.33;;
37869;SDS011;62531;53.326;-1.368;2022-09-09T20:02:41;6.33;;;1.13;;
37869;SDS011;62531;53.326;-1.368;2022-09-09T20:06:43;11.25;;;1.30;;
37869;SDS011;62531;53.326;-1.368;2022-09-09T20:10:49;8.75;;;1.58;;
37869;SDS011;62531;53.326;-1.368;2022-09-09T20:14:52;10.63;;;1.27;;
37869;SDS011;62531;53.326;-1.368;2022-09-09T20:18:55;10.75;;;1.20;;
37869;SDS011;62531;53.326;-1.368;2022-09-09T20:22:59;7.55;;;1.20;;
37869;SDS011;62531;53.326;-1.368;2022-09-09T20:27:00;6.80;;;0.90;;
37869;SDS011;62531;53.326;-1.368;2022-09-09T20:31:02;6.47;;;1.20;;
37869;SDS011;62531;53.326;-1.368;2022-09-09T20:35:08;5.72;;;1.10;;
37869;SDS011;62531;53.326;-1.368;2022-09-09T20:39:11;5.18;;;1.20;;
37869;SDS011;62531;53.326;-1.368;2022-09-09T20:43:17;6.30;;;1.23;;
37869;SDS011;62531;53.326;-1.368;2022-09-09T20:47:18;6.72;;;1.08;;
37869;SDS011;62531;53.326;-1.368;2022-09-09T20:51:19;7.20;;;1.10;;
37869;SDS011;62531;53.326;-1.368;2022-09-09T20:55:23;7.10;;;1.10;;
37869;SDS011;62531;53.326;-1.368;2022-09-09T20:59:26;8.63;;;1.00;;
37869;SDS011;62531;53.326;-1.368;2022-09-09T21:03:30;4.38;;;1.00;;
37869;SDS011;62531;53.326;-1.368;2022-09-09T21:07:33;4.63;;;1.00;;
37869;SDS011;62531;53.326;-1.368;2022-09-09T21:11:34;4.80;;;1.15;;
37869;SDS011;62531;53.326;-1.368;2022-09-09T21:15:36;5.28;;;1.10;;
37869;SDS011;62531;53.326;-1.368;2022-09-09T21:19:37;5.38;;;1.10;;
37869;SDS011;62531;53.326;-1.368;2022-09-09T21:23:39;4.47;;;0.63;;
37869;SDS011;62531;53.326;-1.368;2022-09-09T21:27:42;4.72;;;0.73;;
37869;SDS011;62531;53.326;-1.368;2022-09-09T21:31:43;5.07;;;0.90;;
37869;SDS011;62531;53.326;-1.368;2022-09-09T21:35:45;7.67;;;0.73;;
37869;SDS011;62531;53.326;-1.368;2022-09-09T21:39:46;4.70;;;0.80;;
37869;SDS011;62531;53.326;-1.368;2022-09-09T21:43:50;4.18;;;0.90;;
37869;SDS011;62531;53.326;-1.368;2022-09-09T21:47:53;5.00;;;0.70;;
37869;SDS011;62531;53.326;-1.368;2022-09-09T21:51:56;5.28;;;1.10;;
37869;SDS011;62531;53.326;-1.368;2022-09-09T21:56:02;6.32;;;1.25;;
37869;SDS011;62531;53.326;-1.368;2022-09-09T22:00:06;5.47;;;0.90;;
37869;SDS011;62531;53.326;-1.368;2022-09-09T22:04:12;5.07;;;0.80;;
37869;SDS011;62531;53.326;-1.368;2022-09-09T22:08:13;7.68;;;1.23;;
37869;SDS011;62531;53.326;-1.368;2022-09-09T22:12:17;5.78;;;0.80;;
37869;SDS011;62531;53.326;-1.368;2022-09-09T22:16:19;4.70;;;0.90;;
37869;SDS011;62531;53.326;-1.368;2022-09-09T22:20:21;4.75;;;0.93;;
37869;SDS011;62531;53.326;-1.368;2022-09-09T22:24:23;4.93;;;0.75;;
37869;SDS011;62531;53.326;-1.368;2022-09-09T22:28:28;4.50;;;0.70;;
37869;SDS011;62531;53.326;-1.368;2022-09-09T22:32:30;3.67;;;0.95;;
37869;SDS011;62531;53.326;-1.368;2022-09-09T22:36:31;3.65;;;0.80;;
37869;SDS011;62531;53.326;-1.368;2022-09-09T22:40:34;4.22;;;0.70;;
37869;SDS011;62531;53.326;-1.368;2022-09-09T22:44:40;6.80;;;0.80;;
37869;SDS011;62531;53.326;-1.368;2022-09-09T22:48:41;4.95;;;1.02;;
37869;SDS011;62531;53.326;-1.368;2022-09-09T22:52:45;4.13;;;0.68;;
37869;SDS011;62531;53.326;-1.368;2022-09-09T22:56:50;6.07;;;1.03;;
37869;SDS011;62531;53.326;-1.368;2022-09-09T23:00:51;4.40;;;1.00;;
37869;SDS011;62531;53.326;-1.368;2022-09-09T23:04:52;4.15;;;0.80;;
37869;SDS011;62531;53.326;-1.368;2022-09-09T23:08:58;5.00;;;0.63;;
37869;SDS011;62531;53.326;-1.368;2022-09-09T23:13:01;5.72;;;0.77;;
37869;SDS011;62531;53.326;-1.368;2022-09-09T23:17:02;4.32;;;0.68;;
37869;SDS011;62531;53.326;-1.368;2022-09-09T23:21:05;4.47;;;0.90;;
37869;SDS011;62531;53.326;-1.368;2022-09-09T23:25:08;5.10;;;0.90;;
37869;SDS011;62531;53.326;-1.368;2022-09-09T23:29:14;4.13;;;0.77;;
37869;SDS011;62531;53.326;-1.368;2022-09-09T23:33:16;4.47;;;0.70;;
37869;SDS011;62531;53.326;-1.368;2022-09-09T23:37:17;3.53;;;0.80;;
37869;SDS011;62531;53.326;-1.368;2022-09-09T23:41:18;3.00;;;0.50;;
37869;SDS011;62531;53.326;-1.368;2022-09-09T23:45:20;4.60;;;0.85;;
37869;SDS011;62531;53.326;-1.368;2022-09-09T23:49:22;4.17;;;0.70;;
37869;SDS011;62531;53.326;-1.368;2022-09-09T23:53:23;5.15;;;0.85;;
37869;SDS011;62531;53.326;-1.368;2022-09-09T23:57:26;4.97;;;0.82;;
